Time;durP1;ratioP1;P1;durP2;ratioP2;P2;SDS_P1;SDS_P2;PMS_P1;PMS_P2;Temp;Humidity;BMP_temperature;BMP_pressure;BME280_temperature;BME280_humidity;BME280_pressure;Samples;Min_cycle;Max_cycle;Signal;HPM_P1;HPM_P2
2022/02/03 00:01:05;;;;;;;25.17;5.05;;;;;;;2.25;100.00;101308.59;5029012;28;20064;-79
2022/02/03 00:03:50;;;;;;;25.67;4.85;;;;;;;2.32;100.00;101306.41;5012114;28;20037;-80
2022/02/03 00:06:24;;;;;;;23.85;4.43;;;;;;;2.31;100.00;101307.34;4995667;28;20426;-80
2022/02/03 00:11:41;;;;;;;38.22;8.32;;;;;;;2.31;100.00;101313.47;5012731;28;20513;-79
2022/02/03 00:21:58;;;;;;;25.08;4.00;;;;;;;2.45;100.00;101319.66;5045293;28;20121;-80
2022/02/03 00:25:12;;;;;;;20.25;3.92;;;;;;;2.60;100.00;101302.03;5011978;28;20076;-78
2022/02/03 00:27:59;;;;;;;28.90;4.68;;;;;;;2.58;100.00;101309.22;4996061;28;20111;-80
2022/02/03 00:30:59;;;;;;;25.30;4.60;;;;;;;2.57;100.00;101307.50;4995996;28;20041;-80
2022/02/03 00:33:47;;;;;;;28.38;5.28;;;;;;;2.58;100.00;101298.66;5011988;28;20043;-80
2022/02/03 00:36:23;;;;;;;31.08;4.20;;;;;;;2.64;100.00;101309.66;5029002;28;20040;-80
2022/02/03 00:52:14;;;;;;;;;;;;;;;2.75;100.00;101285.25;5045962;28;20022;-80
2022/02/03 00:54:40;;;;;;;28.08;5.40;;;;;;;2.72;100.00;101277.53;5012260;28;19913;-80
2022/02/03 00:57:09;;;;;;;19.17;4.03;;;;;;;2.60;100.00;101247.53;5012456;28;20036;-80
2022/02/03 00:59:36;;;;;;;29.23;4.93;;;;;;;2.75;100.00;101272.91;4996065;28;20025;-81
2022/02/03 01:02:05;;;;;;;32.97;5.25;;;;;;;2.81;100.00;101271.66;4996223;28;20033;-80
2022/02/03 01:04:31;;;;;;;24.67;4.80;;;;;;;2.73;100.00;101266.03;4995456;28;20040;-80
2022/02/03 01:06:58;;;;;;;34.58;5.75;;;;;;;2.72;100.00;101249.38;5016593;28;20326;-79
2022/02/03 01:09:28;;;;;;;28.13;4.88;;;;;;;2.80;100.00;101253.31;5000965;28;20045;-80
2022/02/03 01:12:03;;;;;;;27.98;4.90;;;;;;;2.69;100.00;101244.31;5014503;28;20025;-80
2022/02/03 01:14:48;;;;;;;24.35;4.93;;;;;;;2.63;100.00;101243.84;4999275;28;20442;-80
2022/02/03 01:17:28;;;;;;;23.55;4.82;;;;;;;2.58;100.00;101240.69;5000493;28;20048;-80
2022/02/03 01:20:31;;;;;;;19.77;5.10;;;;;;;2.59;100.00;101245.81;5016116;28;20033;-80
2022/02/03 01:44:41;;;;;;;25.67;6.75;;;;;;;2.40;100.00;101248.78;5047766;28;19914;-77
2022/02/03 01:47:22;;;;;;;20.83;4.03;;;;;;;2.45;100.00;101238.81;4998005;28;20136;-81
2022/02/03 01:52:38;;;;;;;23.00;4.80;;;;;;;2.40;100.00;101240.88;5014286;28;20037;-81
2022/02/03 01:55:07;;;;;;;26.38;4.13;;;;;;;2.36;100.00;101242.03;5014010;28;20112;-80
2022/02/03 01:57:47;;;;;;;30.95;5.50;;;;;;;2.33;100.00;101242.22;4998677;28;20071;-79
2022/02/03 02:00:15;;;;;;;20.75;5.55;;;;;;;2.37;100.00;101232.34;5047199;28;20037;-79
2022/02/03 02:03:08;;;;;;;23.50;4.75;;;;;;;2.36;100.00;101226.22;5014298;28;20095;-80
2022/02/03 02:05:55;;;;;;;23.85;4.55;;;;;;;2.44;100.00;101223.94;5030235;28;20041;-79
2022/02/03 02:08:36;;;;;;;28.10;4.60;;;;;;;2.39;100.00;101223.41;5014036;28;20051;-80
2022/02/03 02:11:31;;;;;;;28.15;5.82;;;;;;;2.38;100.00;101213.78;4997890;28;20869;-79
2022/02/03 02:39:35;;;;;;;27.02;5.30;;;;;;;2.35;100.00;101197.34;5045854;28;20040;-79
2022/02/03 02:44:56;;;;;;;14.70;3.88;;;;;;;2.48;100.00;101196.44;5030437;28;20037;-80
2022/02/03 02:47:45;;;;;;;33.33;5.43;;;;;;;2.49;100.00;101195.50;5032383;28;20041;-77
2022/02/03 02:50:23;;;;;;;34.08;6.05;;;;;;;2.43;100.00;101173.97;5015690;28;20503;-80
2022/02/03 02:53:10;;;;;;;27.73;5.25;;;;;;;2.48;100.00;101178.00;5032722;28;20036;-79
2022/02/03 02:55:59;;;;;;;21.02;6.72;;;;;;;2.42;100.00;101170.47;5016007;28;20029;-79
2022/02/03 03:32:20;;;;;;;28.80;6.70;;;;;;;2.91;100.00;101150.59;5031759;28;20037;-80
2022/02/03 03:35:14;;;;;;;25.38;5.65;;;;;;;3.02;100.00;101160.41;5015168;28;20059;-81
2022/02/03 03:40:10;;;;;;;29.33;8.57;;;;;;;3.02;100.00;101145.44;5032233;28;20021;-79
2022/02/03 03:42:38;;;;;;;39.70;7.05;;;;;;;3.06;100.00;101157.44;5015867;28;20120;-80
2022/02/03 03:45:09;;;;;;;37.45;7.22;;;;;;;3.07;100.00;101159.16;5032066;28;20036;-80
2022/02/03 03:47:37;;;;;;;32.38;9.18;;;;;;;3.08;100.00;101149.44;5016261;28;20606;-79
2022/02/03 03:50:09;;;;;;;36.17;8.70;;;;;;;3.09;100.00;101149.34;5015780;28;20028;-80
2022/02/03 03:52:44;;;;;;;40.97;9.05;;;;;;;3.12;100.00;101156.22;5016464;28;20041;-79
2022/02/03 04:30:05;;;;;;;47.75;13.10;;;;;;;3.31;100.00;101148.72;5033609;28;20045;-81
2022/02/03 04:38:14;;;;;;;59.20;13.52;;;;;;;3.29;100.00;101149.78;5033456;28;20055;-80
2022/02/03 04:55:41;;;;;;;46.35;11.68;;;;;;;3.26;100.00;101120.97;5036693;28;20383;-81
2022/02/03 05:01:55;;;;;;;44.13;11.30;;;;;;;3.36;100.00;101122.84;5037277;28;20043;-80
2022/02/03 05:05:02;;;;;;;50.55;11.68;;;;;;;3.34;100.00;101129.19;5020689;28;20049;-81
2022/02/03 05:08:05;;;;;;;46.25;11.20;;;;;;;3.41;100.00;101124.31;5038324;28;20044;-80
2022/02/03 05:15:23;;;;;;;54.40;16.13;;;;;;;3.31;100.00;101124.97;4957532;28;20086;-81
2022/02/03 05:17:42;;;;;;;54.78;13.07;;;;;;;3.28;100.00;101109.34;4947818;28;20085;-81
2022/02/03 05:21:06;;;;;;;52.55;13.00;;;;;;;3.26;100.00;101098.03;5031295;28;20041;-81
2022/02/03 05:24:29;;;;;;;58.42;14.43;;;;;;;3.28;100.00;101104.06;5020251;28;20078;-81
2022/02/03 05:33:25;;;;;;;47.88;14.07;;;;;;;3.43;100.00;101094.22;5035313;28;20091;-81
2022/02/03 05:50:29;;;;;;;43.63;15.55;;;;;;;3.38;100.00;101088.44;5019905;28;20045;-80
2022/02/03 06:03:49;;;;;;;38.25;14.27;;;;;;;3.26;100.00;101079.56;5034435;28;20065;-81
2022/02/03 06:14:28;;;;;;;47.35;14.13;;;;;;;3.28;100.00;101071.56;5013968;28;20045;-80
2022/02/03 06:17:16;;;;;;;60.05;17.75;;;;;;;3.11;100.00;101062.16;4998337;28;20029;-79
2022/02/03 06:22:43;;;;;;;47.20;15.93;;;;;;;3.08;100.00;101067.66;5013909;28;20052;-80
2022/02/03 06:27:40;;;;;;;49.53;16.13;;;;;;;2.99;100.00;101050.66;5033454;28;20477;-79
2022/02/03 06:30:08;;;;;;;48.58;16.65;;;;;;;3.12;100.00;101071.78;5033207;28;20148;-78
2022/02/03 06:32:37;;;;;;;47.85;16.55;;;;;;;3.03;100.00;101044.22;5033078;28;20167;-79
2022/02/03 06:35:03;;;;;;;54.15;17.38;;;;;;;3.09;100.00;101056.13;5015710;28;20113;-78
2022/02/03 06:37:29;;;;;;;53.92;18.50;;;;;;;3.08;100.00;101065.03;5033168;28;20514;-79
2022/02/03 06:39:55;;;;;;;52.58;17.83;;;;;;;3.07;100.00;101050.16;5015958;28;20041;-79
2022/02/03 06:42:20;;;;;;;55.05;18.02;;;;;;;3.08;100.00;101049.19;4996211;28;20475;-78
2022/02/03 06:44:53;;;;;;;45.20;16.45;;;;;;;3.05;100.00;101046.78;5028932;28;20955;-79
2022/02/03 06:47:31;;;;;;;58.08;18.40;;;;;;;3.15;100.00;101048.66;5028770;28;20041;-79
2022/02/03 06:50:17;;;;;;;46.80;16.58;;;;;;;3.14;100.00;101052.25;5012396;28;20890;-79
2022/02/03 06:55:42;;;;;;;55.65;16.90;;;;;;;3.15;100.00;101047.81;5012293;28;19913;-79
2022/02/03 06:58:31;;;;;;;46.95;15.82;;;;;;;3.18;100.00;101050.22;5028552;28;20033;-78
2022/02/03 07:01:03;;;;;;;55.92;16.08;;;;;;;3.12;100.00;101045.41;5012652;28;20038;-79
2022/02/03 07:03:32;;;;;;;47.72;17.75;;;;;;;3.11;100.00;101043.69;5028463;28;20038;-79
2022/02/03 07:05:58;;;;;;;44.03;15.13;;;;;;;3.17;100.00;101046.75;5028284;28;20475;-79
2022/02/03 07:08:24;;;;;;;44.50;17.92;;;;;;;3.12;100.00;101024.28;5014462;28;20044;-79
2022/02/03 07:10:53;;;;;;;54.88;16.88;;;;;;;3.16;100.00;101033.66;5028497;28;20037;-80
2022/02/03 07:13:18;;;;;;;44.60;18.92;;;;;;;3.09;100.00;101032.41;5028734;28;20112;-79
2022/02/03 07:15:44;;;;;;;49.30;17.17;;;;;;;3.11;100.00;101036.66;5028601;28;20120;-79
2022/02/03 07:18:09;;;;;;;47.20;18.40;;;;;;;3.05;100.00;101033.59;5013111;28;20284;-79
2022/02/03 07:20:35;;;;;;;38.17;15.83;;;;;;;3.14;100.00;101049.63;4997540;28;20029;-78
2022/02/03 07:23:02;;;;;;;50.60;17.08;;;;;;;3.02;100.00;101028.50;5010053;28;20758;-80
2022/02/03 07:25:27;;;;;;;45.75;16.50;;;;;;;3.08;100.00;101038.63;5028577;28;20113;-80
2022/02/03 07:27:53;;;;;;;52.08;15.95;;;;;;;3.03;100.00;101036.31;5025830;28;20021;-80
2022/02/03 07:30:19;;;;;;;33.85;14.40;;;;;;;3.05;100.00;101044.13;5015228;28;20032;-79
2022/02/03 07:32:44;;;;;;;36.77;13.87;;;;;;;3.17;100.00;101036.19;5012412;28;20037;-79
2022/02/03 07:35:10;;;;;;;41.50;15.70;;;;;;;3.13;100.00;101036.53;4997294;28;20021;-82
2022/02/03 07:37:43;;;;;;;39.10;18.38;;;;;;;3.18;100.00;101034.41;4997632;28;20290;-80
2022/02/03 07:40:09;;;;;;;40.05;14.63;;;;;;;3.17;100.00;101028.28;5031372;28;20029;-81
2022/02/03 07:42:34;;;;;;;36.25;14.90;;;;;;;3.02;100.00;101010.91;4997784;28;20036;-81
2022/02/03 07:45:00;;;;;;;41.47;16.90;;;;;;;3.21;100.00;101036.84;4997789;28;20046;-81
2022/02/03 07:47:25;;;;;;;37.47;15.10;;;;;;;3.15;100.00;101018.78;5013992;28;20033;-81
2022/02/03 07:49:50;;;;;;;49.60;15.57;;;;;;;3.24;100.00;101019.94;4998251;28;20275;-81
2022/02/03 07:52:16;;;;;;;35.90;16.33;;;;;;;3.13;100.00;101016.25;5014459;28;20095;-81
2022/02/03 07:54:42;;;;;;;34.40;14.27;;;;;;;3.23;100.00;101024.38;4997341;28;20127;-80
2022/02/03 07:57:07;;;;;;;;;;;;;;;3.26;100.00;101025.97;5031224;28;20049;-80
2022/02/03 07:59:33;;;;;;;37.03;14.60;;;;;;;3.15;100.00;101003.78;4995997;28;19979;-81
2022/02/03 08:01:58;;;;;;;31.67;13.37;;;;;;;3.19;100.00;101009.72;4997231;28;20029;-81
2022/02/03 08:04:28;;;;;;;34.10;15.10;;;;;;;3.26;100.00;101013.59;5012986;28;20295;-79
2022/02/03 08:06:54;;;;;;;28.50;12.48;;;;;;;3.29;100.00;101016.00;5013455;28;20120;-79
2022/02/03 08:11:47;;;;;;;34.73;13.93;;;;;;;3.15;100.00;100987.97;5013288;28;20030;-80
2022/02/03 08:14:37;;;;;;;29.85;13.40;;;;;;;3.26;100.00;100999.56;4996703;28;20108;-81
2022/02/03 08:17:16;;;;;;;34.85;14.98;;;;;;;3.31;100.00;101003.56;5011891;28;20040;-80
2022/02/03 08:22:16;;;;;;;30.88;14.27;;;;;;;3.29;100.00;101010.75;5033997;28;20125;-80
2022/02/03 08:25:18;;;;;;;31.75;14.38;;;;;;;3.30;100.00;101001.03;4999105;28;20037;-80
2022/02/03 08:28:31;;;;;;;23.70;12.40;;;;;;;3.34;100.00;101008.59;5013821;28;20050;-80
2022/02/03 08:30:34;;;;;;;31.45;12.93;;;;;;;3.38;100.00;100999.53;5005136;28;20044;-80
2022/02/03 08:33:00;;;;;;;27.23;12.77;;;;;;;3.38;100.00;100988.97;4999745;28;20041;-80
2022/02/03 08:35:43;;;;;;;21.85;11.05;;;;;;;3.48;100.00;101006.78;4998738;28;20114;-81
2022/02/03 08:43:09;;;;;;;23.92;12.13;;;;;;;3.60;100.00;100990.06;5016035;28;20400;-80
2022/02/03 08:45:34;;;;;;;;;;;;;;;3.63;100.00;100997.78;5015604;28;20551;-80
2022/02/03 08:48:00;;;;;;;24.40;10.90;;;;;;;3.56;100.00;100983.34;4998970;28;20015;-80
2022/02/03 08:50:25;;;;;;;27.33;11.13;;;;;;;3.74;100.00;101008.38;4998914;28;20033;-80
2022/02/03 08:53:03;;;;;;;26.30;11.93;;;;;;;3.70;100.00;101006.06;4999268;28;20022;-80
2022/02/03 08:55:38;;;;;;;29.90;11.95;;;;;;;3.81;100.00;100999.03;5014637;28;20036;-80
2022/02/03 09:41:16;;;;;;;25.03;10.67;;;;;;;4.48;100.00;100980.91;5033709;28;20029;-79
2022/02/03 09:57:20;;;;;;;24.08;10.85;;;;;;;4.67;100.00;100961.81;5033364;28;20051;-79
2022/02/03 09:59:59;;;;;;;24.38;11.30;;;;;;;4.68;100.00;100960.84;5033024;28;20123;-78
2022/02/03 10:02:29;;;;;;;26.42;12.88;;;;;;;4.70;100.00;100964.22;5033408;28;20444;-79
2022/02/03 10:05:12;;;;;;;26.30;12.70;;;;;;;4.71;100.00;100964.13;5032392;28;20036;-79
2022/02/03 10:07:38;;;;;;;32.70;15.27;;;;;;;4.82;100.00;100966.78;5016305;28;20475;-80
2022/02/03 10:10:11;;;;;;;46.20;20.33;;;;;;;4.77;100.00;100955.69;5016431;28;20033;-79
2022/02/03 10:12:41;;;;;;;108.55;53.05;;;;;;;4.89;100.00;100964.47;5017064;28;21036;-79
2022/02/03 10:15:11;;;;;;;42.90;24.63;;;;;;;4.95;100.00;100965.81;5019563;28;20033;-80
2022/02/03 10:17:46;;;;;;;26.50;12.02;;;;;;;4.97;100.00;100956.78;5020730;28;20816;-80
2022/02/03 10:20:15;;;;;;;26.23;12.03;;;;;;;5.04;100.00;100957.13;5035764;28;20035;-79
2022/02/03 10:22:49;;;;;;;22.92;10.10;;;;;;;5.11;100.00;100958.34;5035428;28;20037;-79
2022/02/03 10:25:28;;;;;;;25.63;10.10;;;;;;;5.08;100.00;100946.19;5035075;28;20036;-81
2022/02/03 10:28:02;;;;;;;22.67;10.02;;;;;;;5.25;100.00;100958.06;5035908;28;20494;-80
2022/02/03 10:33:12;;;;;;;21.42;10.45;;;;;;;5.36;100.00;100943.13;5035625;28;20033;-80
2022/02/03 11:06:20;;;;;;;45.08;15.52;;;;;;;5.77;100.00;100902.66;5013589;28;20120;-79
2022/02/03 11:11:39;;;;;;;48.53;18.02;;;;;;;5.81;100.00;100896.13;5030040;28;20029;-80
2022/02/03 11:14:05;;;;;;;58.60;20.60;;;;;;;5.90;100.00;100905.97;5016061;28;20582;-79
2022/02/03 11:16:36;;;;;;;65.75;22.25;;;;;;;5.89;100.00;100898.97;5031405;28;20108;-79
2022/02/03 11:19:04;;;;;;;59.40;22.05;;;;;;;5.89;100.00;100890.19;5015186;28;20067;-79
2022/02/03 11:21:31;;;;;;;63.33;22.83;;;;;;;5.93;100.00;100896.94;5021339;28;20526;-80
2022/02/03 11:24:04;;;;;;;58.45;21.48;;;;;;;6.00;100.00;100894.63;5014301;28;20772;-79
2022/02/03 11:40:17;;;;;;;65.90;23.98;;;;;;;6.07;100.00;100879.88;5030981;28;20028;-80
2022/02/03 11:46:07;;;;;;;69.22;22.60;;;;;;;6.25;100.00;100880.97;5031020;28;20491;-79
2022/02/03 11:54:44;;;;;;;;;;;;;;;6.27;100.00;100881.66;5031403;28;20087;-80
2022/02/03 12:03:10;;;;;;;62.47;23.33;;;;;;;6.24;100.00;100865.19;5030163;28;20068;-80
2022/02/03 12:16:38;;;;;;;69.22;22.40;;;;;;;6.23;100.00;100867.00;5029898;28;20037;-78
2022/02/03 12:22:28;;;;;;;;;;;;;;;6.29;100.00;100863.81;5030304;28;20093;-80
2022/02/03 12:25:50;;;;;;;58.40;19.77;;;;;;;6.33;100.00;100861.75;5012927;28;19913;-79
2022/02/03 12:28:13;;;;;;;53.05;19.80;;;;;;;6.33;100.00;100861.75;5021461;28;20079;-80
2022/02/03 12:31:06;;;;;;;54.42;18.65;;;;;;;6.33;100.00;100859.94;5012454;28;20032;-78
2022/02/03 12:38:42;;;;;;;50.42;19.55;;;;;;;6.45;100.00;100858.03;5027455;28;20033;-79
2022/02/03 12:41:18;;;;;;;49.03;18.05;;;;;;;6.46;100.00;100853.56;4993501;28;20041;-79
2022/02/03 12:44:38;;;;;;;48.50;18.48;;;;;;;6.45;100.00;100855.38;5026009;28;20048;-78
2022/02/03 12:46:41;;;;;;;51.40;19.02;;;;;;;6.49;100.00;100851.50;5001879;28;20048;-80
2022/02/03 12:49:07;;;;;;;47.03;17.48;;;;;;;6.51;100.00;100852.22;5009536;28;20025;-79
2022/02/03 12:51:32;;;;;;;41.22;17.20;;;;;;;6.50;100.00;100834.59;5026582;28;20049;-80
2022/02/03 12:54:08;;;;;;;40.73;15.23;;;;;;;6.53;100.00;100838.78;5026235;28;20040;-82
2022/02/03 12:56:33;;;;;;;39.22;13.25;;;;;;;6.54;100.00;100837.84;5027477;28;20372;-80
2022/02/03 12:59:01;;;;;;;39.40;14.03;;;;;;;6.53;100.00;100833.47;5026884;28;20028;-81
2022/02/03 13:01:35;;;;;;;35.60;14.88;;;;;;;6.58;100.00;100831.28;5028471;28;20037;-79
2022/02/03 13:04:08;;;;;;;36.03;13.85;;;;;;;6.53;100.00;100809.63;5010537;28;20025;-79
2022/02/03 13:06:34;;;;;;;36.97;13.82;;;;;;;6.62;100.00;100811.47;5033110;28;20086;-80
2022/02/03 13:09:03;;;;;;;35.45;12.73;;;;;;;6.60;100.00;100781.56;5017019;28;20475;-81
2022/02/03 13:11:51;;;;;;;35.00;13.82;;;;;;;6.59;100.00;100795.00;5014020;28;20072;-78
2022/02/03 13:14:30;;;;;;;33.90;14.73;;;;;;;6.62;100.00;100790.22;4999798;28;20866;-79
2022/02/03 13:17:35;;;;;;;40.88;15.68;;;;;;;6.64;100.00;100782.97;5017431;28;20036;-79
2022/02/03 13:19:57;;;;;;;34.13;13.82;;;;;;;6.57;100.00;100776.53;5029573;28;20195;-79
2022/02/03 13:27:28;;;;;;;37.42;13.73;;;;;;;6.49;100.00;100761.31;5033394;28;20021;-78
2022/02/03 13:30:08;;;;;;;33.92;13.30;;;;;;;6.44;100.00;100760.03;5032950;28;20037;-79
2022/02/03 13:32:39;;;;;;;33.40;13.68;;;;;;;6.48;100.00;100761.44;5033038;28;20040;-79
2022/02/03 13:35:24;;;;;;;34.38;14.25;;;;;;;6.40;100.00;100763.94;5032912;28;20045;-79
2022/02/03 13:38:06;;;;;;;34.30;14.35;;;;;;;6.36;100.00;100746.63;5016816;28;20047;-78
2022/02/03 13:40:31;;;;;;;33.13;12.57;;;;;;;6.40;100.00;100759.47;5017186;28;20044;-78
2022/02/03 13:43:04;;;;;;;34.63;14.23;;;;;;;6.39;100.00;100754.28;5016247;28;20036;-79
2022/02/03 13:45:29;;;;;;;41.33;15.60;;;;;;;6.34;100.00;100741.44;5033395;28;20132;-79
2022/02/03 13:47:55;;;;;;;31.85;13.95;;;;;;;6.35;100.00;100753.75;5017346;28;20084;-79
2022/02/03 13:53:11;;;;;;;31.92;12.27;;;;;;;6.32;100.00;100749.56;5032923;28;20041;-80
2022/02/03 14:18:46;;;;;;;25.73;10.50;;;;;;;6.20;100.00;100747.13;5032973;28;20025;-78
2022/02/03 14:21:35;;;;;;;27.83;11.23;;;;;;;6.25;100.00;100764.31;5016678;28;20037;-78
2022/02/03 14:29:32;;;;;;;28.27;11.15;;;;;;;6.13;100.00;100728.25;5032662;28;20047;-79
2022/02/03 14:32:04;;;;;;;25.10;10.88;;;;;;;6.09;100.00;100719.75;5016492;28;20024;-79
2022/02/03 14:34:32;;;;;;;26.30;11.88;;;;;;;6.09;100.00;100724.22;5016833;28;20075;-79
2022/02/03 14:37:16;;;;;;;26.05;11.50;;;;;;;6.04;100.00;100703.41;5016430;28;20451;-78
2022/02/03 14:42:30;;;;;;;28.27;11.82;;;;;;;6.05;100.00;100706.91;5030995;28;20128;-79
2022/02/03 14:44:55;;;;;;;22.98;11.85;;;;;;;6.07;100.00;100707.59;5030640;28;20041;-78
2022/02/03 14:47:23;;;;;;;27.13;11.27;;;;;;;6.03;100.00;100704.38;5014200;28;20606;-78
2022/02/03 14:49:48;;;;;;;27.77;11.57;;;;;;;6.06;100.00;100706.78;5030783;28;20065;-78
2022/02/03 14:52:25;;;;;;;23.38;11.00;;;;;;;6.08;100.00;100707.44;5014916;28;20709;-78
2022/02/03 15:00:21;;;;;;;24.35;11.80;;;;;;;6.00;100.00;100719.72;5049903;28;20033;-79
2022/02/03 15:02:46;;;;;;;27.60;12.15;;;;;;;6.00;100.00;100717.06;5015934;28;20029;-78
2022/02/03 15:05:21;;;;;;;47.17;18.98;;;;;;;5.96;100.00;100716.47;5012321;28;20029;-78
2022/02/03 15:07:48;;;;;;;143.45;67.63;;;;;;;5.96;100.00;100707.69;5010647;28;20055;-78
2022/02/03 15:13:00;;;;;;;38.97;18.23;;;;;;;5.97;100.00;100702.28;5034483;28;20449;-78
2022/02/03 15:15:25;;;;;;;36.55;19.00;;;;;;;5.88;100.00;100698.56;5017156;28;20036;-78
2022/02/03 15:17:51;;;;;;;34.72;16.15;;;;;;;5.78;100.00;100671.19;5033768;28;20036;-78
2022/02/03 15:20:16;;;;;;;37.60;16.13;;;;;;;5.83;100.00;100682.25;5050959;28;20541;-77
2022/02/03 15:22:41;;;;;;;40.07;17.03;;;;;;;5.83;100.00;100681.38;5033559;28;20546;-78
2022/02/03 15:25:08;;;;;;;39.90;17.33;;;;;;;5.90;100.00;100683.38;5017169;28;20056;-78
2022/02/03 15:27:33;;;;;;;36.05;16.85;;;;;;;5.84;100.00;100667.19;5051232;28;20025;-78
2022/02/03 15:30:03;;;;;;;42.97;17.53;;;;;;;5.81;100.00;100670.94;5051247;28;20426;-78
2022/02/03 15:32:28;;;;;;;34.97;16.75;;;;;;;5.70;100.00;100665.72;5033096;28;20094;-78
2022/02/03 15:34:55;;;;;;;36.28;15.43;;;;;;;5.79;100.00;100672.03;5016225;28;20017;-79
2022/02/03 15:37:21;;;;;;;50.88;24.05;;;;;;;5.74;100.00;100658.38;5025752;28;20032;-77
2022/02/03 15:39:49;;;;;;;42.67;17.63;;;;;;;5.85;100.00;100680.31;5017841;28;20040;-78
2022/02/03 15:42:23;;;;;;;44.40;19.77;;;;;;;5.82;100.00;100669.94;5018484;28;20044;-78
2022/02/03 15:44:52;;;;;;;43.95;19.13;;;;;;;5.82;100.00;100675.25;5035485;28;20499;-78
2022/02/03 15:47:26;;;;;;;47.72;19.38;;;;;;;5.78;100.00;100668.53;5019179;28;20027;-78
2022/02/03 15:58:35;;;;;;;44.67;18.63;;;;;;;5.79;100.00;100654.31;5032313;28;20040;-79
2022/02/03 16:18:36;;;;;;;42.40;19.23;;;;;;;5.76;100.00;100637.84;5086246;28;20027;-78
2022/02/03 16:21:21;;;;;;;37.67;17.63;;;;;;;5.70;100.00;100632.13;5069287;28;20096;-75
2022/02/03 16:53:16;;;;;;;47.15;19.23;;;;;;;5.55;100.00;100575.19;5007708;28;20046;-77
2022/02/03 16:55:44;;;;;;;45.33;20.50;;;;;;;5.54;100.00;100580.63;5020806;28;20546;-77
2022/02/03 16:58:11;;;;;;;39.22;18.58;;;;;;;5.57;100.00;100583.00;5048295;28;20037;-77
2022/02/03 17:00:37;;;;;;;43.22;17.65;;;;;;;5.57;100.00;100588.28;5031117;28;20036;-76
2022/02/03 17:03:03;;;;;;;45.30;18.42;;;;;;;5.53;100.00;100584.25;5047126;28;20029;-77
2022/02/03 17:05:30;;;;;;;46.58;19.23;;;;;;;5.61;100.00;100608.25;5047218;28;20036;-77
2022/02/03 17:07:55;;;;;;;;;;;;;;;5.54;100.00;100596.50;5047466;28;20037;-76
2022/02/03 17:10:20;;;;;;;;;;;;;;;5.55;100.00;100601.69;5048157;28;19917;-76
2022/02/03 17:12:47;;;;;;;46.17;18.53;;;;;;;5.56;100.00;100600.69;5048655;28;19920;-76
2022/02/03 17:15:12;;;;;;;;;;;;;;;5.53;100.00;100597.50;5048010;28;20060;-76
2022/02/03 17:17:38;;;;;;;38.10;17.17;;;;;;;5.44;100.00;100597.31;5031172;28;19913;-77
2022/02/03 17:20:04;;;;;;;47.00;19.77;;;;;;;5.45;100.00;100598.97;5048176;28;20029;-77
2022/02/03 17:22:34;;;;;;;46.40;18.60;;;;;;;5.43;100.00;100600.94;5047348;28;20280;-77
2022/02/03 17:28:08;;;;;;;44.53;18.13;;;;;;;5.39;100.00;100593.41;5048240;28;20033;-77
2022/02/03 17:30:35;;;;;;;43.80;18.67;;;;;;;5.38;100.00;100589.88;5046697;28;20041;-76
2022/02/03 17:52:36;;;;;;;79.35;33.88;;;;;;;5.45;100.00;100614.03;5037994;28;20045;-77
2022/02/03 18:11:21;;;;;;;39.15;16.88;;;;;;;5.40;100.00;100608.31;5049531;28;20037;-77
2022/02/03 18:33:14;;;;;;;36.58;17.52;;;;;;;5.46;100.00;100600.66;5049987;28;20055;-76
2022/02/03 18:35:55;;;;;;;36.65;17.50;;;;;;;5.43;100.00;100595.66;5049111;28;20533;-76
2022/02/03 18:49:49;;;;;;;41.47;18.73;;;;;;;5.37;100.00;100571.50;5052942;28;20108;-77
2022/02/03 18:52:03;;;;;;;43.47;20.67;;;;;;;5.39;100.00;100575.69;5046690;28;20057;-77
2022/02/03 18:57:16;;;;;;;41.63;20.20;;;;;;;5.32;100.00;100582.50;5057143;28;20037;-77
2022/02/03 19:00:10;;;;;;;39.00;17.80;;;;;;;5.30;100.00;100587.06;5049823;28;20041;-76
2022/02/03 19:16:14;;;;;;;45.33;19.45;;;;;;;5.24;100.00;100590.25;5067388;28;20481;-77
2022/02/03 19:24:28;;;;;;;50.17;21.70;;;;;;;5.26;100.00;100605.03;5067283;28;20348;-77
2022/02/03 19:57:42;;;;;;;51.67;21.20;;;;;;;5.19;100.00;100608.34;5066963;28;20028;-78
2022/02/03 20:05:38;;;;;;;49.60;21.98;;;;;;;5.18;100.00;100606.66;5066670;28;20051;-77
2022/02/03 20:08:14;;;;;;;49.50;20.13;;;;;;;5.17;100.00;100604.97;5066831;28;20728;-78
2022/02/03 20:10:47;;;;;;;45.22;18.67;;;;;;;5.15;100.00;100601.63;5049860;28;20119;-78
2022/02/03 20:13:12;;;;;;;45.63;21.38;;;;;;;5.17;100.00;100604.97;5064736;28;20075;-77
2022/02/03 20:15:40;;;;;;;49.22;21.33;;;;;;;5.15;100.00;100605.13;5050273;28;20061;-77
2022/02/03 20:18:10;;;;;;;42.65;18.30;;;;;;;5.20;100.00;100610.03;5062006;28;20149;-77
2022/02/03 20:20:35;;;;;;;44.58;18.77;;;;;;;5.15;100.00;100609.56;5046604;28;20033;-78
2022/02/03 20:23:03;;;;;;;48.13;21.93;;;;;;;5.16;100.00;100595.38;5047543;28;20372;-77
2022/02/03 20:25:29;;;;;;;44.88;18.92;;;;;;;5.22;100.00;100602.75;5047787;28;20475;-78
2022/02/03 20:27:54;;;;;;;42.17;19.23;;;;;;;5.24;100.00;100600.81;5046456;28;20033;-76
2022/02/03 20:30:20;;;;;;;45.70;20.77;;;;;;;5.18;100.00;100604.03;5029149;28;21097;-78
2022/02/03 20:32:45;;;;;;;42.37;20.63;;;;;;;5.19;100.00;100589.81;5029357;28;20032;-78
2022/02/03 20:35:11;;;;;;;43.27;19.10;;;;;;;5.18;100.00;100588.97;5028985;28;20056;-77
2022/02/03 20:37:37;;;;;;;38.92;19.25;;;;;;;5.20;100.00;100583.56;5046198;28;20021;-77
2022/02/03 20:40:03;;;;;;;49.75;21.38;;;;;;;5.07;100.00;100574.00;5066671;28;20040;-78
2022/02/03 20:42:28;;;;;;;;;;;;;;;5.21;100.00;100591.34;5049418;28;20037;-77
2022/02/03 20:44:54;;;;;;;57.38;24.77;;;;;;;5.17;100.00;100589.09;5064749;28;20027;-77
2022/02/03 20:47:19;;;;;;;45.40;19.60;;;;;;;5.14;100.00;100579.59;5065840;28;20100;-76
2022/02/03 20:49:45;;;;;;;46.08;20.95;;;;;;;5.05;100.00;100549.47;5049150;28;20064;-77
2022/02/03 20:52:10;;;;;;;46.65;21.05;;;;;;;5.20;100.00;100573.81;5048789;28;20126;-77
2022/02/03 20:54:36;;;;;;;52.73;21.20;;;;;;;5.08;100.00;100565.09;5065454;28;20031;-76
2022/02/03 20:57:02;;;;;;;48.10;20.23;;;;;;;5.14;100.00;100562.91;5066661;28;20146;-77
2022/02/03 20:59:52;;;;;;;46.67;20.58;;;;;;;5.16;100.00;100566.25;5065639;28;20271;-76
2022/02/03 21:02:28;;;;;;;48.22;22.98;;;;;;;5.15;100.00;100564.56;5059864;28;20048;-77
2022/02/03 21:05:13;;;;;;;47.90;21.33;;;;;;;5.15;100.00;100557.47;5042400;28;20048;-77
2022/02/03 21:07:41;;;;;;;48.67;22.25;;;;;;;5.18;100.00;100569.63;5052213;28;20394;-76
2022/02/03 21:10:10;;;;;;;49.97;22.45;;;;;;;5.12;100.00;100559.53;5065024;28;20033;-77
2022/02/03 21:12:36;;;;;;;55.10;23.15;;;;;;;5.09;100.00;100539.47;5065658;28;20195;-78
2022/02/03 21:15:05;;;;;;;47.95;20.23;;;;;;;5.17;100.00;100552.03;5065963;28;20059;-77
2022/02/03 21:17:32;;;;;;;47.20;21.23;;;;;;;5.15;100.00;100540.75;5066218;28;20059;-77
2022/02/03 21:20:07;;;;;;;44.20;18.20;;;;;;;5.13;100.00;100534.75;5066290;28;20035;-78
2022/02/03 21:22:37;;;;;;;49.13;20.20;;;;;;;5.10;100.00;100535.84;5050045;28;20064;-77
2022/02/03 21:25:14;;;;;;;45.10;19.85;;;;;;;5.14;100.00;100536.44;5050983;28;20075;-77
2022/02/03 21:27:39;;;;;;;43.58;21.80;;;;;;;5.13;100.00;100547.97;5054220;28;20064;-78
2022/02/03 21:30:07;;;;;;;50.10;23.53;;;;;;;5.09;100.00;100534.19;5070347;28;20427;-77
2022/02/03 21:32:32;;;;;;;52.55;23.35;;;;;;;5.11;100.00;100531.41;5063731;28;20040;-75
2022/02/03 21:34:58;;;;;;;47.42;22.45;;;;;;;5.18;100.00;100537.84;5051692;28;20029;-77
2022/02/03 21:37:23;;;;;;;45.67;20.60;;;;;;;5.09;100.00;100528.91;5035009;28;20526;-77
2022/02/03 21:39:54;;;;;;;52.83;23.63;;;;;;;5.14;100.00;100531.97;5069834;28;20440;-77
2022/02/03 21:42:19;;;;;;;48.85;21.65;;;;;;;5.19;100.00;100553.59;5052809;28;20052;-78